createdAt,value
2023-01-17T00:06:12.937Z,0.3
2023-01-17T00:12:35.923Z,0.8
2023-01-17T00:18:56.077Z,0.8
2023-01-17T00:25:18.943Z,1.7
2023-01-17T00:31:39.083Z,1.7
2023-01-17T00:38:02.007Z,0.7
2023-01-17T00:44:22.077Z,0.7
2023-01-17T00:50:44.974Z,0.9
2023-01-17T00:57:05.093Z,0.9
2023-01-17T01:03:28.005Z,1.1
2023-01-17T01:09:48.127Z,1.1
2023-01-17T01:16:11.213Z,2.2
2023-01-17T01:22:31.092Z,2.2
2023-01-17T01:28:53.968Z,0.5
2023-01-17T01:35:14.119Z,0.5
2023-01-17T01:41:37.042Z,0.4
2023-01-17T01:47:56.999Z,0.4
2023-01-17T01:54:20.142Z,2.1
2023-01-17T02:00:40.213Z,2.1
2023-01-17T02:07:03.062Z,0.4
2023-01-17T02:13:23.023Z,0.4
2023-01-17T02:19:45.901Z,6.7
2023-01-17T02:26:05.939Z,6.7
2023-01-17T02:32:29.053Z,2.5
2023-01-17T02:38:49.172Z,2.5
2023-01-17T02:45:12.007Z,2.7
2023-01-17T02:51:31.998Z,2.7
2023-01-17T02:57:55.165Z,0.6
2023-01-17T03:04:15.117Z,0.6
2023-01-17T03:10:37.947Z,6.3
2023-01-17T03:16:57.948Z,6.3
2023-01-17T03:23:20.924Z,1.7
2023-01-17T03:29:41.155Z,1.7
2023-01-17T03:36:04.129Z,2.3
2023-01-17T03:42:24.080Z,2.3
2023-01-17T03:48:47.102Z,1.6
2023-01-17T03:55:07.058Z,1.6
2023-01-17T04:01:30.191Z,1
2023-01-17T04:17:18.798Z,13
2023-01-17T04:23:38.944Z,13
2023-01-17T04:30:01.946Z,3
2023-01-17T04:36:21.948Z,3
2023-01-17T04:42:44.922Z,3
2023-01-17T04:49:04.953Z,3
2023-01-17T04:55:27.984Z,1.2
2023-01-17T05:01:48.037Z,1.2
2023-01-17T05:08:10.945Z,3.7
2023-01-17T05:14:30.970Z,3.7
2023-01-17T05:20:54.037Z,1.3
2023-01-17T05:27:13.992Z,1.3
2023-01-17T05:33:36.998Z,1.3
2023-01-17T05:39:57.004Z,1.3
2023-01-17T05:46:20.029Z,2.6
2023-01-17T05:52:39.951Z,2.6
2023-01-17T05:59:03.085Z,1.8
2023-01-17T06:05:22.968Z,1.8
2023-01-17T06:11:46.017Z,3.6
2023-01-17T06:18:05.962Z,3.6
2023-01-17T06:24:28.911Z,1.6
2023-01-17T06:30:49.134Z,1.6
2023-01-17T06:37:11.912Z,2.1
2023-01-17T06:43:31.953Z,2.1
2023-01-17T06:49:55.114Z,2.1
2023-01-17T06:56:14.989Z,2.1
2023-01-17T07:02:38.074Z,1.7
2023-01-17T07:08:57.999Z,1.7
2023-01-17T07:15:20.921Z,1.3
2023-01-17T07:21:41.015Z,1.3
2023-01-17T07:28:03.926Z,15.2
2023-01-17T07:34:24.156Z,15.2
2023-01-17T07:40:47.024Z,2.8
2023-01-17T07:47:07.053Z,2.8
2023-01-17T07:53:30.113Z,6.2
2023-01-17T07:59:49.973Z,6.2
2023-01-17T08:06:13.043Z,1.5
2023-01-17T08:12:33.024Z,1.5
2023-01-17T08:18:55.919Z,10.2
2023-01-17T08:25:16.045Z,10.2
2023-01-17T08:31:39.020Z,20.8
2023-01-17T08:37:59.045Z,20.8
2023-01-17T08:44:22.055Z,1.1
2023-01-17T08:50:41.974Z,1.1
2023-01-17T08:57:05.036Z,3.6
2023-01-17T09:19:53.830Z,4
2023-01-17T09:26:13.927Z,4
2023-01-17T09:32:36.980Z,5.9
2023-01-17T09:38:57.063Z,5.9
2023-01-17T09:45:19.989Z,2.1
2023-01-17T09:51:40.487Z,2.1
2023-01-17T09:58:02.989Z,1.3
2023-01-17T10:04:22.965Z,1.3
2023-01-17T10:10:45.915Z,4.6
2023-01-17T10:17:06.059Z,4.6
2023-01-17T10:23:29.022Z,2
2023-01-17T10:29:49.045Z,2
2023-01-17T10:36:12.025Z,3
2023-01-17T10:42:31.991Z,3
2023-01-17T10:48:54.991Z,2.4
2023-01-17T10:55:15.077Z,2.4
2023-01-17T11:01:38.080Z,1.3
2023-01-17T11:07:57.975Z,1.3
2023-01-17T11:14:20.991Z,4
2023-01-17T11:20:40.992Z,4
2023-01-17T11:27:03.945Z,1.1
2023-01-17T11:33:23.957Z,1.1
2023-01-17T11:39:46.978Z,1.8
2023-01-17T11:46:07.029Z,1.8
2023-01-17T11:52:30.037Z,2.2
2023-01-17T11:58:50.053Z,2.2
2023-01-17T12:05:12.992Z,2
2023-01-17T12:11:33.553Z,2
2023-01-17T12:17:56.242Z,0.9
2023-01-17T12:24:15.920Z,0.9
2023-01-17T12:30:38.988Z,2.2
2023-01-17T12:36:58.911Z,2.2
2023-01-17T12:43:22.008Z,6.9
2023-01-17T12:49:41.979Z,6.9
2023-01-17T12:56:04.979Z,1.6
2023-01-17T13:02:25.001Z,1.6
2023-01-17T13:08:47.994Z,1.2
2023-01-17T13:15:08.089Z,1.2
2023-01-17T13:21:30.944Z,3.6
2023-01-17T13:27:50.991Z,3.6
2023-01-17T13:34:13.973Z,1.1
2023-01-17T13:40:34.081Z,1.1
2023-01-17T13:46:56.980Z,1.2
2023-01-17T13:53:16.927Z,1.2
2023-01-17T13:59:39.985Z,0.2
2023-01-17T14:05:59.996Z,0.2
2023-01-17T14:28:47.875Z,2.5
2023-01-17T14:35:07.877Z,2.5
2023-01-17T14:41:30.964Z,2.1
2023-01-17T14:47:51.041Z,2.1
2023-01-17T14:54:13.998Z,1.6
2023-01-17T15:00:34.079Z,1.6
2023-01-17T15:06:57.012Z,0.6
2023-01-17T15:13:17.009Z,0.6
2023-01-17T15:19:40.189Z,0.7
2023-01-17T15:25:59.995Z,0.7
2023-01-17T15:32:23.102Z,6
2023-01-17T15:38:43.024Z,6
2023-01-17T15:45:07.181Z,0.6
2023-01-17T15:51:27.159Z,0.6
2023-01-17T15:57:50.054Z,0.8
2023-01-17T16:04:10.000Z,0.8
2023-01-17T16:10:33.008Z,2.9
2023-01-17T16:16:53.045Z,2.9
2023-01-17T16:23:16.123Z,1.2
2023-01-17T16:29:36.230Z,1.2
2023-01-17T16:35:59.349Z,1.4
2023-01-17T16:42:19.013Z,1.4
2023-01-17T16:48:42.119Z,2.4
2023-01-17T16:55:01.931Z,2.4
2023-01-17T17:01:25.106Z,1.7
2023-01-17T17:07:45.102Z,1.7
2023-01-17T17:14:08.598Z,1.4
2023-01-17T17:20:29.109Z,1.4
2023-01-17T17:26:52.018Z,2.1
2023-01-17T17:33:11.966Z,2.1
2023-01-17T17:39:35.048Z,0.9
2023-01-17T17:45:55.099Z,0.9
2023-01-17T17:52:17.931Z,1.7
2023-01-17T17:58:37.944Z,1.7
2023-01-17T18:05:01.001Z,2.2
2023-01-17T18:11:21.045Z,2.2
2023-01-17T18:17:43.930Z,3.1
2023-01-17T18:24:03.925Z,3.1
2023-01-17T18:30:27.105Z,4
2023-01-17T18:36:47.019Z,4
2023-01-17T18:43:09.950Z,4.7
2023-01-17T18:49:30.203Z,4.7
2023-01-17T18:55:54.406Z,3.4
2023-01-17T19:02:13.007Z,3.4
2023-01-17T19:08:35.924Z,2.3
2023-01-17T19:24:06.891Z,10.9
2023-01-17T19:30:26.895Z,10.9
2023-01-17T19:36:49.896Z,16.2
2023-01-17T19:43:10.048Z,16.2
2023-01-17T19:49:32.893Z,16.2
2023-01-17T19:55:52.947Z,16.2
2023-01-17T20:02:15.985Z,6.6
2023-01-17T20:08:36.129Z,6.6
2023-01-17T20:14:59.085Z,37.3
2023-01-17T20:21:18.977Z,37.3
2023-01-17T20:27:42.073Z,13.7
2023-01-17T20:34:01.926Z,13.7
2023-01-17T20:40:25.092Z,8.7
2023-01-17T20:46:44.942Z,8.7
2023-01-17T20:53:07.877Z,9.1
2023-01-17T20:59:27.922Z,9.1
2023-01-17T21:05:50.955Z,5.7
2023-01-17T21:12:11.128Z,5.7
2023-01-17T21:18:34.170Z,5.1
2023-01-17T21:24:53.916Z,5.1
2023-01-17T21:31:17.102Z,4.7
2023-01-17T21:37:36.946Z,4.7
2023-01-17T21:43:59.896Z,13.6
2023-01-17T21:50:32.602Z,13.6
2023-01-17T21:56:42.953Z,9.1
2023-01-17T22:03:02.963Z,9.1
2023-01-17T22:09:25.988Z,2.2
2023-01-17T22:15:46.704Z,2.2
2023-01-17T22:22:09.959Z,4.2
2023-01-17T22:28:30.081Z,4.2
2023-01-17T22:34:53.107Z,3.2
2023-01-17T22:41:12.947Z,3.2
2023-01-17T22:47:35.950Z,3.1
2023-01-17T22:53:56.033Z,3.1
2023-01-17T23:00:18.935Z,3.2
2023-01-17T23:23:15.960Z,19.2
2023-01-17T23:29:35.885Z,19.2
2023-01-17T23:35:59.020Z,19.2
2023-01-17T23:42:19.085Z,19.2
2023-01-17T23:48:41.957Z,9.3
2023-01-17T23:55:01.941Z,9.3
